createdAt,value
2017-08-08T00:01:50.419Z,5.43
2017-08-08T00:04:17.149Z,5.93
2017-08-08T00:06:43.531Z,5.37
2017-08-08T00:09:09.899Z,5.80
2017-08-08T00:11:36.300Z,5.80
2017-08-08T00:14:02.696Z,6.47
2017-08-08T00:16:29.064Z,6.87
2017-08-08T00:18:55.399Z,6.00
2017-08-08T00:21:22.025Z,6.50
2017-08-08T00:23:48.376Z,5.70
2017-08-08T00:26:14.731Z,6.07
2017-08-08T00:28:41.247Z,6.73
2017-08-08T00:31:07.729Z,7.20
2017-08-08T00:33:34.108Z,7.03
2017-08-08T00:36:00.486Z,6.87
2017-08-08T00:38:27.125Z,6.93
2017-08-08T00:40:53.488Z,6.60
2017-08-08T00:43:19.868Z,6.27
2017-08-08T00:45:46.212Z,6.70
2017-08-08T00:48:12.728Z,6.53
2017-08-08T00:50:39.092Z,6.50
2017-08-08T00:53:05.461Z,6.33
2017-08-08T00:55:31.833Z,6.53
2017-08-08T00:57:58.500Z,6.13
2017-08-08T01:00:24.858Z,7.00
2017-08-08T01:02:51.951Z,7.93
2017-08-08T01:05:18.354Z,7.60
2017-08-08T01:07:44.712Z,7.57
2017-08-08T01:10:11.620Z,6.47
2017-08-08T01:12:38.474Z,6.60
2017-08-08T01:15:06.252Z,6.10
2017-08-08T01:17:33.247Z,7.43
2017-08-08T01:20:00.117Z,6.03
2017-08-08T01:22:26.514Z,7.37
2017-08-08T01:24:52.977Z,7.40
2017-08-08T01:27:19.318Z,6.40
2017-08-08T01:29:45.697Z,6.33
2017-08-08T01:32:12.357Z,6.00
2017-08-08T01:34:38.749Z,6.40
2017-08-08T01:37:05.133Z,6.83
2017-08-08T01:39:31.514Z,6.37
2017-08-08T01:41:58.358Z,6.63
2017-08-08T01:44:25.299Z,6.40
2017-08-08T01:46:52.266Z,6.30
2017-08-08T01:49:19.172Z,7.87
2017-08-08T01:51:46.105Z,6.50
2017-08-08T01:54:13.132Z,6.20
2017-08-08T01:56:40.052Z,6.67
2017-08-08T01:59:06.979Z,6.13
2017-08-08T02:01:33.825Z,5.80
2017-08-08T02:04:00.243Z,6.37
2017-08-08T02:06:26.618Z,6.17
2017-08-08T02:08:54.429Z,7.37
2017-08-08T02:11:20.823Z,6.13
2017-08-08T02:13:47.241Z,6.77
2017-08-08T02:16:13.623Z,7.10
2017-08-08T02:18:40.136Z,7.13
2017-08-08T02:21:06.871Z,7.43
2017-08-08T02:23:33.324Z,7.03
2017-08-08T02:25:59.724Z,7.93
2017-08-08T02:28:26.121Z,7.10
2017-08-08T02:30:52.513Z,5.97
2017-08-08T02:33:18.901Z,7.10
2017-08-08T02:35:45.247Z,7.03
2017-08-08T02:38:11.757Z,7.53
2017-08-08T02:40:38.116Z,6.80
2017-08-08T02:43:04.492Z,5.97
2017-08-08T02:45:30.861Z,6.47
2017-08-08T02:47:57.229Z,6.77
2017-08-08T02:50:23.570Z,7.30
2017-08-08T02:52:49.957Z,7.40
2017-08-08T02:55:16.320Z,7.47
2017-08-08T02:57:42.662Z,6.63
2017-08-08T03:00:09.389Z,7.00
2017-08-08T03:02:35.749Z,8.10
2017-08-08T03:05:02.100Z,8.20
2017-08-08T03:07:28.445Z,6.90
2017-08-08T03:09:54.791Z,7.57
2017-08-08T03:12:21.123Z,7.20
2017-08-08T03:14:47.485Z,7.50
2017-08-08T03:17:13.868Z,8.20
2017-08-08T03:19:40.208Z,7.97
2017-08-08T03:22:06.556Z,7.23
2017-08-08T03:24:32.878Z,6.83
2017-08-08T03:26:59.235Z,8.00
2017-08-08T03:29:25.626Z,7.40
2017-08-08T03:31:51.996Z,8.00
2017-08-08T03:34:18.326Z,7.47
2017-08-08T03:36:44.714Z,9.00
2017-08-08T03:39:11.111Z,7.50
2017-08-08T03:41:37.464Z,7.73
2017-08-08T03:44:03.833Z,7.70
2017-08-08T03:46:31.450Z,8.00
2017-08-08T03:48:57.797Z,8.90
2017-08-08T03:51:24.153Z,7.53
2017-08-08T03:53:50.537Z,7.70
2017-08-08T03:56:16.891Z,7.20
2017-08-08T03:58:43.230Z,7.50
2017-08-08T04:01:09.591Z,7.57
2017-08-08T04:03:35.906Z,8.40
2017-08-08T04:06:02.280Z,7.60
2017-08-08T04:08:28.631Z,8.23
2017-08-08T04:10:54.968Z,7.97
2017-08-08T04:13:21.335Z,8.30
2017-08-08T04:15:47.720Z,8.20
2017-08-08T04:18:14.062Z,7.90
2017-08-08T04:20:40.424Z,7.30
2017-08-08T04:23:06.787Z,7.73
2017-08-08T04:25:33.155Z,7.50
2017-08-08T04:27:59.530Z,8.43
2017-08-08T04:30:25.943Z,7.37
2017-08-08T04:32:52.314Z,8.40
2017-08-08T04:35:18.683Z,8.00
2017-08-08T04:37:45.050Z,8.30
2017-08-08T04:40:11.390Z,7.80
2017-08-08T04:42:37.879Z,7.97
2017-08-08T04:45:04.256Z,8.33
2017-08-08T04:47:30.607Z,7.70
2017-08-08T04:49:56.987Z,7.60
2017-08-08T04:52:23.317Z,8.47
2017-08-08T04:54:49.643Z,7.87
2017-08-08T04:57:16.001Z,7.87
2017-08-08T04:59:42.346Z,8.50
2017-08-08T05:02:08.694Z,7.93
2017-08-08T05:04:35.071Z,7.40
2017-08-08T05:07:01.429Z,7.77
2017-08-08T05:09:27.796Z,8.20
2017-08-08T05:11:54.168Z,7.50
2017-08-08T05:14:20.518Z,7.30
2017-08-08T05:16:46.896Z,8.57
2017-08-08T05:19:14.034Z,7.90
2017-08-08T05:21:40.401Z,8.23
2017-08-08T05:24:06.740Z,7.53
2017-08-08T05:26:33.125Z,8.13
2017-08-08T05:29:00.383Z,7.70
2017-08-08T05:31:26.828Z,8.70
2017-08-08T05:33:53.205Z,7.90
2017-08-08T05:36:19.561Z,9.03
2017-08-08T05:38:45.956Z,7.67
2017-08-08T05:41:12.328Z,8.33
2017-08-08T05:43:38.671Z,7.93
2017-08-08T05:46:05.025Z,7.80
2017-08-08T05:48:31.425Z,8.77
2017-08-08T05:50:57.769Z,8.43
2017-08-08T05:53:25.005Z,7.93
2017-08-08T05:55:51.374Z,8.23
2017-08-08T05:58:17.701Z,7.43
2017-08-08T06:00:44.099Z,8.50
2017-08-08T06:03:10.463Z,10.33
2017-08-08T06:05:36.849Z,12.07
2017-08-08T06:08:03.214Z,13.70
2017-08-08T06:10:29.575Z,12.47
2017-08-08T06:12:55.933Z,11.20
2017-08-08T06:15:22.277Z,9.77
2017-08-08T06:17:48.644Z,9.53
2017-08-08T06:20:15.059Z,8.13
2017-08-08T06:22:41.406Z,7.40
2017-08-08T06:25:07.775Z,8.37
2017-08-08T06:27:34.139Z,7.60
2017-08-08T06:30:00.515Z,7.70
2017-08-08T06:32:26.864Z,8.20
2017-08-08T06:34:53.245Z,8.03
2017-08-08T06:37:19.610Z,7.60
2017-08-08T06:39:45.961Z,8.93
2017-08-08T06:42:12.328Z,9.17
2017-08-08T06:44:38.695Z,7.40
2017-08-08T06:47:05.041Z,7.10
2017-08-08T06:49:31.394Z,7.80
2017-08-08T06:51:57.809Z,7.00
2017-08-08T06:54:24.182Z,7.30
2017-08-08T06:56:50.549Z,6.80
2017-08-08T06:59:16.913Z,7.27
2017-08-08T07:01:43.281Z,7.57
2017-08-08T07:04:09.649Z,7.27
2017-08-08T07:06:36.027Z,7.30
2017-08-08T07:09:02.440Z,7.17
2017-08-08T07:11:28.790Z,7.83
2017-08-08T07:13:55.124Z,8.13
2017-08-08T07:16:21.489Z,6.57
2017-08-08T07:18:47.823Z,6.27
2017-08-08T07:21:14.200Z,7.07
2017-08-08T07:23:40.540Z,6.93
2017-08-08T07:26:06.883Z,5.93
2017-08-08T07:28:33.223Z,5.90
2017-08-08T07:30:59.599Z,5.57
2017-08-08T07:33:25.980Z,6.23
2017-08-08T07:35:52.361Z,5.53
2017-08-08T07:38:18.735Z,5.13
2017-08-08T07:40:45.066Z,5.00
2017-08-08T07:43:11.416Z,4.90
2017-08-08T07:45:37.779Z,5.00
2017-08-08T07:48:04.182Z,5.33
2017-08-08T07:50:30.566Z,4.90
2017-08-08T07:52:56.932Z,5.53
2017-08-08T07:55:23.337Z,5.00
2017-08-08T07:57:49.722Z,4.83
2017-08-08T08:00:16.074Z,4.87
2017-08-08T08:02:42.483Z,5.00
2017-08-08T08:05:08.876Z,5.67
2017-08-08T08:07:35.270Z,4.77
2017-08-08T08:10:01.653Z,4.00
2017-08-08T08:12:28.014Z,4.57
2017-08-08T08:14:54.365Z,4.87
2017-08-08T08:17:20.739Z,4.60
2017-08-08T08:19:47.086Z,4.70
2017-08-08T08:22:13.430Z,4.57
2017-08-08T08:24:39.798Z,5.20
2017-08-08T08:27:06.176Z,4.73
2017-08-08T08:29:32.525Z,4.47
2017-08-08T08:31:58.898Z,4.50
2017-08-08T08:34:25.270Z,4.73
2017-08-08T08:36:51.640Z,4.93
2017-08-08T08:39:18.005Z,4.73
2017-08-08T08:41:44.363Z,4.20
2017-08-08T08:44:10.727Z,4.73
2017-08-08T08:46:37.072Z,4.20
2017-08-08T08:49:03.417Z,4.77
2017-08-08T08:51:29.787Z,4.87
2017-08-08T08:53:56.149Z,5.20
2017-08-08T08:56:22.465Z,4.80
2017-08-08T08:58:48.854Z,4.00
2017-08-08T09:01:15.256Z,4.80
2017-08-08T09:03:41.602Z,4.80
2017-08-08T09:06:07.978Z,4.67
2017-08-08T09:08:34.341Z,5.17
2017-08-08T09:11:00.729Z,4.87
2017-08-08T09:13:27.100Z,5.47
2017-08-08T09:15:53.460Z,4.60
2017-08-08T09:18:19.813Z,4.40
2017-08-08T09:20:46.198Z,4.57
2017-08-08T09:23:12.559Z,5.00
2017-08-08T09:25:38.903Z,5.20
2017-08-08T09:28:05.281Z,5.17
2017-08-08T09:30:31.676Z,4.70
2017-08-08T09:32:58.030Z,5.53
2017-08-08T09:35:24.422Z,4.70
2017-08-08T09:37:50.769Z,5.50
2017-08-08T09:40:17.118Z,5.57
2017-08-08T09:42:43.483Z,5.73
2017-08-08T09:45:09.864Z,5.23
2017-08-08T09:47:36.253Z,5.70
2017-08-08T09:50:02.645Z,6.83
2017-08-08T09:52:29.031Z,6.40
2017-08-08T09:54:55.385Z,6.53
2017-08-08T09:57:21.858Z,6.77
2017-08-08T09:59:48.228Z,6.57
2017-08-08T10:02:14.570Z,7.30
2017-08-08T10:04:40.950Z,6.57
2017-08-08T10:07:07.332Z,7.13
2017-08-08T10:09:33.671Z,6.57
2017-08-08T10:12:00.045Z,7.20
2017-08-08T10:14:26.407Z,6.83
2017-08-08T10:16:52.785Z,5.57
2017-08-08T10:19:19.145Z,6.60
2017-08-08T10:21:45.497Z,6.13
2017-08-08T10:24:11.862Z,5.63
2017-08-08T10:26:38.198Z,5.67
2017-08-08T10:29:04.551Z,6.30
2017-08-08T10:31:30.919Z,6.17
2017-08-08T10:33:57.278Z,6.70
2017-08-08T10:36:23.651Z,5.90
2017-08-08T10:38:50.019Z,5.83
2017-08-08T10:41:16.407Z,5.83
2017-08-08T10:43:42.766Z,5.50
2017-08-08T10:46:09.195Z,5.90
2017-08-08T10:48:35.612Z,5.63
2017-08-08T10:51:01.995Z,5.60
2017-08-08T10:53:28.361Z,5.93
2017-08-08T10:55:54.695Z,6.37
2017-08-08T10:58:21.080Z,5.87
2017-08-08T11:00:47.418Z,6.03
2017-08-08T11:03:13.782Z,6.30
2017-08-08T11:05:40.153Z,6.00
2017-08-08T11:08:06.517Z,6.20
2017-08-08T11:10:32.869Z,6.60
2017-08-08T11:12:59.233Z,6.03
2017-08-08T11:15:25.582Z,6.23
2017-08-08T11:17:51.956Z,5.93
2017-08-08T11:20:18.313Z,6.30
2017-08-08T11:22:44.693Z,6.40
2017-08-08T11:25:11.049Z,5.53
2017-08-08T11:27:37.410Z,5.90
2017-08-08T11:30:03.810Z,5.30
2017-08-08T11:32:30.258Z,5.57
2017-08-08T11:34:56.710Z,6.00
2017-08-08T11:37:23.093Z,6.30
2017-08-08T11:39:49.456Z,6.40
2017-08-08T11:42:15.794Z,6.30
2017-08-08T11:44:42.167Z,6.13
2017-08-08T11:47:10.961Z,6.10
2017-08-08T11:49:37.496Z,6.73
2017-08-08T11:52:03.868Z,6.40
2017-08-08T11:54:30.205Z,7.40
2017-08-08T11:56:56.556Z,6.90
2017-08-08T11:59:22.933Z,6.67
2017-08-08T12:01:49.293Z,6.90
2017-08-08T12:04:15.677Z,6.73
2017-08-08T12:06:42.065Z,6.30
2017-08-08T12:09:08.402Z,5.80
2017-08-08T12:11:34.824Z,5.40
2017-08-08T12:14:01.185Z,5.87
2017-08-08T12:16:27.617Z,6.10
2017-08-08T12:18:53.965Z,6.03
2017-08-08T12:21:20.346Z,5.67
2017-08-08T12:23:46.718Z,6.00
2017-08-08T12:26:13.136Z,5.80
2017-08-08T12:28:39.462Z,7.97
2017-08-08T12:31:05.848Z,5.77
2017-08-08T12:33:32.208Z,7.00
2017-08-08T12:35:58.620Z,6.63
2017-08-08T12:38:25.013Z,7.20
2017-08-08T12:40:51.410Z,6.23
2017-08-08T12:43:18.606Z,7.13
2017-08-08T12:45:45.045Z,6.70
2017-08-08T12:48:11.397Z,6.87
2017-08-08T12:50:37.768Z,5.83
2017-08-08T12:53:04.162Z,6.40
2017-08-08T12:55:30.522Z,5.90
2017-08-08T12:57:56.897Z,5.80
2017-08-08T13:00:23.369Z,5.93
2017-08-08T13:02:49.738Z,5.80
2017-08-08T13:05:16.071Z,6.10
2017-08-08T13:07:42.186Z,5.77
2017-08-08T13:10:08.597Z,5.83
2017-08-08T13:12:34.948Z,6.13
2017-08-08T13:15:01.896Z,5.93
2017-08-08T13:17:28.298Z,4.43
2017-08-08T13:19:54.954Z,5.80
2017-08-08T13:22:21.502Z,4.97
2017-08-08T13:24:47.916Z,4.97
2017-08-08T13:27:14.490Z,4.70
2017-08-08T13:29:40.892Z,4.40
2017-08-08T13:32:07.253Z,4.97
2017-08-08T13:34:33.598Z,4.97
2017-08-08T13:36:59.954Z,4.80
2017-08-08T13:39:26.363Z,4.60
2017-08-08T13:41:52.719Z,4.17
2017-08-08T13:44:19.087Z,4.27
2017-08-08T13:46:45.449Z,3.90
2017-08-08T13:49:11.857Z,4.67
2017-08-08T13:51:38.212Z,4.23
2017-08-08T13:54:04.576Z,4.13
2017-08-08T13:56:30.959Z,5.20
2017-08-08T13:58:57.793Z,4.20
2017-08-08T14:01:24.196Z,5.47
2017-08-08T14:03:50.543Z,5.10
2017-08-08T14:06:16.907Z,4.97
2017-08-08T14:08:43.280Z,5.03
2017-08-08T14:11:09.671Z,5.17
2017-08-08T14:13:36.051Z,5.27
2017-08-08T14:16:02.411Z,5.27
2017-08-08T14:18:28.781Z,5.40
2017-08-08T14:20:55.143Z,6.37
2017-08-08T14:23:21.534Z,5.87
2017-08-08T14:25:47.944Z,5.23
2017-08-08T14:28:14.337Z,5.07
2017-08-08T14:30:40.683Z,5.73
2017-08-08T14:33:07.049Z,6.00
2017-08-08T14:35:33.408Z,6.83
2017-08-08T14:37:59.759Z,6.00
2017-08-08T14:40:26.132Z,7.00
2017-08-08T14:42:52.494Z,6.37
2017-08-08T14:45:18.922Z,6.57
2017-08-08T14:47:45.300Z,5.40
2017-08-08T14:50:11.696Z,5.60
2017-08-08T14:52:38.084Z,5.53
2017-08-08T14:55:04.459Z,5.17
2017-08-08T14:57:30.807Z,4.93
2017-08-08T14:59:57.163Z,5.00
2017-08-08T15:02:23.595Z,4.47
2017-08-08T15:04:49.976Z,5.43
2017-08-08T15:07:16.373Z,4.40
2017-08-08T15:09:42.715Z,5.00
2017-08-08T15:12:09.126Z,5.53
2017-08-08T15:14:35.498Z,5.43
2017-08-08T15:17:01.903Z,5.00
2017-08-08T15:19:28.271Z,5.67
2017-08-08T15:21:54.688Z,5.20
2017-08-08T15:24:21.043Z,5.53
2017-08-08T15:26:47.399Z,5.13
2017-08-08T15:29:13.823Z,5.70
2017-08-08T15:31:40.210Z,5.23
2017-08-08T15:34:06.589Z,5.20
2017-08-08T15:36:32.924Z,5.40
2017-08-08T15:38:59.296Z,5.13
2017-08-08T15:41:25.691Z,4.90
2017-08-08T15:43:52.061Z,5.00
2017-08-08T15:46:18.411Z,5.07
2017-08-08T15:48:44.808Z,4.60
2017-08-08T15:51:11.194Z,5.10
2017-08-08T15:53:37.561Z,5.17
2017-08-08T15:56:03.946Z,4.40
2017-08-08T15:58:30.311Z,5.37
2017-08-08T16:00:56.675Z,5.23
2017-08-08T16:03:23.052Z,5.40
2017-08-08T16:05:49.412Z,4.63
2017-08-08T16:08:15.830Z,5.20
2017-08-08T16:10:42.229Z,4.67
2017-08-08T16:13:08.594Z,5.00
2017-08-08T16:15:35.314Z,5.23
2017-08-08T16:18:01.700Z,5.57
2017-08-08T16:20:28.121Z,4.47
2017-08-08T16:22:54.754Z,4.90
2017-08-08T16:25:21.112Z,4.33
2017-08-08T16:27:47.791Z,5.63
2017-08-08T16:30:14.221Z,5.47
2017-08-08T16:32:40.625Z,5.63
2017-08-08T16:35:07.039Z,6.00
2017-08-08T16:37:33.548Z,5.50
2017-08-08T16:39:59.960Z,5.00
2017-08-08T16:42:26.318Z,5.57
2017-08-08T16:44:53.026Z,2.43
2017-08-08T16:47:19.411Z,2.57
2017-08-08T16:49:46.286Z,2.00
2017-08-08T16:52:12.814Z,1.97
2017-08-08T16:54:39.195Z,2.20
2017-08-08T16:57:06.907Z,2.50
2017-08-08T16:59:33.340Z,2.27
2017-08-08T17:02:00.267Z,2.57
2017-08-08T17:04:26.758Z,2.33
2017-08-08T17:06:53.687Z,1.70
2017-08-08T17:09:20.062Z,1.63
2017-08-08T17:11:46.592Z,2.00
2017-08-08T17:14:12.979Z,2.40
2017-08-08T17:16:39.368Z,2.00
2017-08-08T17:19:05.784Z,2.43
2017-08-08T17:21:32.489Z,2.60
2017-08-08T17:23:58.869Z,2.50
2017-08-08T17:26:25.258Z,3.87
2017-08-08T17:28:51.644Z,4.00
2017-08-08T17:31:18.013Z,4.93
2017-08-08T17:33:44.454Z,4.60
2017-08-08T17:36:10.893Z,5.07
2017-08-08T17:38:37.251Z,5.53
2017-08-08T17:41:03.656Z,5.33
2017-08-08T17:43:30.062Z,5.87
2017-08-08T17:45:56.434Z,7.67
2017-08-08T17:48:22.824Z,8.13
2017-08-08T17:50:49.278Z,9.60
2017-08-08T17:53:15.671Z,8.87
2017-08-08T17:55:42.028Z,9.33
2017-08-08T17:58:08.409Z,8.97
2017-08-08T18:00:34.871Z,9.83
2017-08-08T18:03:01.250Z,10.50
2017-08-08T18:05:27.639Z,11.40
2017-08-08T18:07:54.351Z,11.77
2017-08-08T18:10:20.725Z,12.97
2017-08-08T18:12:47.152Z,12.73
2017-08-08T18:15:13.537Z,13.83
2017-08-08T18:17:39.926Z,16.47
2017-08-08T18:20:06.318Z,17.37
2017-08-08T18:22:32.713Z,18.77
2017-08-08T18:24:59.106Z,19.80
2017-08-08T18:27:25.478Z,23.60
2017-08-08T18:29:51.881Z,21.07
2017-08-08T18:32:18.270Z,25.27
2017-08-08T18:34:44.638Z,25.23
2017-08-08T18:37:11.027Z,25.00
2017-08-08T18:39:37.420Z,24.70
2017-08-08T18:42:03.839Z,23.93
2017-08-08T18:44:30.578Z,21.37
2017-08-08T18:46:56.957Z,15.40
2017-08-08T18:49:23.310Z,15.50
2017-08-08T18:51:49.718Z,12.50
2017-08-08T18:54:16.102Z,11.80
2017-08-08T18:56:42.467Z,11.10
2017-08-08T18:59:08.849Z,11.83
2017-08-08T19:01:35.223Z,10.13
2017-08-08T19:04:01.978Z,11.20
2017-08-08T19:06:28.372Z,11.20
2017-08-08T19:08:54.757Z,10.53
2017-08-08T19:11:21.179Z,10.33
2017-08-08T19:13:47.549Z,11.47
2017-08-08T19:16:13.968Z,11.37
2017-08-08T19:18:40.335Z,11.43
2017-08-08T19:21:06.681Z,11.40
2017-08-08T19:23:33.038Z,11.00
2017-08-08T19:25:59.410Z,11.50
2017-08-08T19:28:25.854Z,11.43
2017-08-08T19:30:52.541Z,12.40
2017-08-08T19:33:18.919Z,11.90
2017-08-08T19:35:45.897Z,13.37
2017-08-08T19:38:12.702Z,13.00
2017-08-08T19:40:39.357Z,13.23
2017-08-08T19:43:05.809Z,13.97
2017-08-08T19:45:32.218Z,12.10
2017-08-08T19:47:58.705Z,13.60
2017-08-08T19:50:25.103Z,13.70
2017-08-08T19:52:51.571Z,13.83
2017-08-08T19:55:17.953Z,12.73
2017-08-08T19:57:44.299Z,14.43
2017-08-08T20:00:10.627Z,14.57
2017-08-08T20:02:37.026Z,14.67
2017-08-08T20:05:03.438Z,14.80
2017-08-08T20:07:29.819Z,14.70
2017-08-08T20:09:56.174Z,14.00
2017-08-08T20:12:22.545Z,14.03
2017-08-08T20:14:48.898Z,15.30
2017-08-08T20:17:15.249Z,16.73
2017-08-08T20:19:41.638Z,16.10
2017-08-08T20:22:07.997Z,16.57
2017-08-08T20:24:34.391Z,17.83
2017-08-08T20:27:01.637Z,17.83
2017-08-08T20:29:37.986Z,19.30
2017-08-08T20:32:11.917Z,18.43
2017-08-08T20:34:38.776Z,18.07
2017-08-08T20:37:07.764Z,18.80
2017-08-08T20:39:34.852Z,19.57
2017-08-08T20:42:01.210Z,20.17
2017-08-08T20:44:27.634Z,19.23
2017-08-08T20:46:54.011Z,19.90
2017-08-08T20:49:20.366Z,17.70
2017-08-08T20:51:46.738Z,21.17
2017-08-08T20:54:13.148Z,20.73
2017-08-08T20:56:39.516Z,20.53
2017-08-08T20:59:06.641Z,21.07
2017-08-08T21:01:33.016Z,19.87
2017-08-08T21:03:59.400Z,19.80
2017-08-08T21:06:25.742Z,19.80
2017-08-08T21:08:52.115Z,22.20
2017-08-08T21:11:18.502Z,21.70
2017-08-08T21:13:44.865Z,22.70
2017-08-08T21:16:11.234Z,19.53
2017-08-08T21:18:37.612Z,21.30
2017-08-08T21:21:03.956Z,21.23
2017-08-08T21:23:30.295Z,23.20
2017-08-08T21:25:57.845Z,22.37
2017-08-08T21:28:24.743Z,23.00
2017-08-08T21:30:51.184Z,22.43
2017-08-08T21:33:17.610Z,23.37
2017-08-08T21:35:43.962Z,24.00
2017-08-08T21:38:10.415Z,21.53
2017-08-08T21:40:36.819Z,24.00
2017-08-08T21:43:03.537Z,25.23
2017-08-08T21:45:29.935Z,25.80
2017-08-08T21:47:56.307Z,25.80
2017-08-08T21:50:23.223Z,20.10
2017-08-08T21:52:49.886Z,26.20
2017-08-08T21:55:16.267Z,25.53
2017-08-08T21:57:42.897Z,26.90
2017-08-08T22:00:09.345Z,25.90
2017-08-08T22:02:36.950Z,24.93
2017-08-08T22:05:03.569Z,26.10
2017-08-08T22:07:29.978Z,28.50
2017-08-08T22:09:56.831Z,26.30
2017-08-08T22:12:23.282Z,24.77
2017-08-08T22:14:50.289Z,27.47
2017-08-08T22:17:16.697Z,27.90
2017-08-08T22:19:43.110Z,25.37
2017-08-08T22:22:09.449Z,27.47
2017-08-08T22:24:35.804Z,25.00
2017-08-08T22:27:02.189Z,29.13
2017-08-08T22:29:28.907Z,28.47
2017-08-08T22:31:55.507Z,26.10
2017-08-08T22:34:21.914Z,27.40
2017-08-08T22:36:48.300Z,30.87
2017-08-08T22:39:14.674Z,31.97
2017-08-08T22:41:41.024Z,31.40
2017-08-08T22:44:07.566Z,30.30
2017-08-08T22:46:33.898Z,31.40
2017-08-08T22:49:00.290Z,28.43
2017-08-08T22:51:27.034Z,28.40
2017-08-08T22:53:53.686Z,28.93
2017-08-08T22:56:20.049Z,31.53
2017-08-08T22:58:46.488Z,28.13
2017-08-08T23:01:12.862Z,25.50
2017-08-08T23:03:40.684Z,31.03
2017-08-08T23:06:07.797Z,29.87
2017-08-08T23:08:34.167Z,28.27
2017-08-08T23:11:00.524Z,30.30
2017-08-08T23:13:27.492Z,33.17
2017-08-08T23:15:54.019Z,30.10
2017-08-08T23:18:21.828Z,31.40
2017-08-08T23:20:48.225Z,31.17
2017-08-08T23:23:14.953Z,31.07
2017-08-08T23:25:41.361Z,32.07
2017-08-08T23:28:07.715Z,32.03
2017-08-08T23:30:34.122Z,33.53
2017-08-08T23:33:01.974Z,29.00
2017-08-08T23:35:28.392Z,31.30
2017-08-08T23:37:55.572Z,29.93
2017-08-08T23:40:22.122Z,29.70
2017-08-08T23:42:48.531Z,30.90
2017-08-08T23:45:14.927Z,30.70
2017-08-08T23:47:41.351Z,32.53
2017-08-08T23:50:07.721Z,29.10
2017-08-08T23:52:34.152Z,33.17
2017-08-08T23:55:01.134Z,28.40
2017-08-08T23:57:27.718Z,31.57
2017-08-08T23:59:54.609Z,33.27
